Historyczne dane pomiarowe

Dodano dane terminowe – wersja testowa.

Dane z okresu 1951-2019

Wersja bazy: 1.34 [2019-03-16, lista zmian], aktualizacja planowana na 2019-04-15

Dane meteo z obszaru Polski uzyskane na podstawie danych udostępnionych przez Instytut Meteorologii i Gospodarki Wodnej – Państwowy Instytut Badawczy.

 

Wybierz Datę:    

       

TemperaturaWilgotnośćWiatrCiśnienieOpadyŚniegCzas trwania zjawisk
 Stacja t tx tn tng RH VA  wxwx mslp ppp RRR   cm mm wxwxwxwxwxwxwx
1907-06-13 20.8 26.2 14.9- 72.0-----1001.6- 12.3--x- 6.0-------
1907-06-14 16.4 20.5 13.5- 79.0-----1005.3- 0.6--x- 5.4-------
1907-06-15 18.7 22.2 11.4- 67.0-----1007.9- 0.0--x- 13.1-------
1907-06-16 16.4 21.6 13.2- 67.0-----1002.6- 3.1--x- 10.4-------
1907-06-17 14.3 18.0 6.4- 61.0-----1007.7- 0.0--x- 8.7-------
1907-06-18 16.4 20.2 11.4- 62.0-----1005.2- 0.0--x- 8.7-------
1907-06-19 14.3 18.5 12.3- 78.0-----1000.5- 3.1--x- 3.6-------
1907-06-20 15.6 20.3 7.1- 62.0-----1003.3- 0.0--x- 8.8-------
1907-06-21 17.4 26.9 11.9- 58.0----- 995.6- 0.4--x- 6.1-------
1907-06-22 16.9 21.2 8.3- 56.0-----1004.4- 0.0--x- 10.8-------
1907-06-23 14.8 20.2 8.1- 79.0-----1002.0- 3.5--x- 2.3-------
1907-06-24 13.1 18.0 8.2- 66.0-----1005.3- 0.6--x- 7.4-------
1907-06-25 13.6 18.5 7.4- 70.0----- 998.2- 5.2--x- 2.7-------
1907-06-26 14.4 18.5 7.4- 78.0----- 998.8- 0.2--x- 5.8-------
1907-06-27 17.9 22.3 10.9- 72.0-----1006.4- 0.0--x- 5.7-------
1907-06-28 23.3 28.2 12.8- 58.0-----1005.0- 0.0--x- 13.8-------
1907-06-29 20.4 27.8 15.3- 77.0-----1000.5- 8.1--x- 9.0-------
1907-06-30 19.9 25.5 14.2- 70.0----- 996.6- 6.6--x- 12.5-------
1907-07-01 15.7 20.3 11.9- 86.0----- 995.7- 46.5--x- 2.2-------
1907-07-02 12.5 14.7 11.1- 92.0----- 993.3- 38.0--x- 0.0-------
1907-07-03 9.4 12.0 8.1- 93.0----- 996.2- 4.0--x- 0.0-------
1907-07-04 15.5 20.5 7.6- 71.0-----1003.6- 0.0--x- 10.6-------
1907-07-05 19.6 27.2 10.9- 62.0-----1005.6- 3.6--x- 9.7-------
1907-07-06 17.4 20.7 10.9- 70.0-----1004.9- 0.0--x- 4.4-------
1907-07-07 15.5 21.0 13.0- 73.0-----1002.8- 0.0--x- 7.3-------
1907-07-08 17.4 21.7 9.2- 64.0-----1002.8- 4.6--x- 9.1-------
1907-07-09 17.0 22.6 12.9- 68.0-----1005.8- 0.0--x- 11.1-------
1907-07-10 16.8 22.0 11.9- 71.0-----1009.0- 3.7--x- 5.0-------
1907-07-11 13.1 17.8 10.9- 88.0-----1008.0- 51.2--x- 1.3-------
1907-07-12 10.8 12.0 9.7- 91.0-----1009.7- 5.2--x- 0.0-------
2.9 ms

 

Źródłem pochodzenia danych jest Instytut Meteorologii i Gospodarki Wodnej – Państwowy Instytut Badawczy. Dane Instytutu Meteorologii i Gospodarki Wodnej – Państwowego Instytutu Badawczego zostały przetworzone.

Dane źródłowe można odnaleźć na stronie https://dane.imgw.pl